createdAt,value
2022-07-30T00:00:32.480Z,6.00
2022-07-30T00:02:59.868Z,9.05
2022-07-30T00:05:27.046Z,6.40
2022-07-30T00:07:54.404Z,10.98
2022-07-30T00:10:23.084Z,8.23
2022-07-30T00:12:55.196Z,9.90
2022-07-30T00:15:22.521Z,8.55
2022-07-30T00:17:49.749Z,10.18
2022-07-30T00:20:17.505Z,9.55
2022-07-30T00:22:46.017Z,10.85
2022-07-30T00:25:13.520Z,10.32
2022-07-30T00:27:44.398Z,7.88
2022-07-30T00:30:12.506Z,10.75
2022-07-30T00:32:40.012Z,9.95
2022-07-30T00:35:07.801Z,9.65
2022-07-30T00:37:35.067Z,8.98
2022-07-30T00:40:02.315Z,8.75
2022-07-30T00:42:44.888Z,11.48
2022-07-30T00:45:13.335Z,8.48
2022-07-30T00:47:41.348Z,12.73
2022-07-30T00:50:10.870Z,9.38
2022-07-30T00:52:41.288Z,10.13
2022-07-30T00:55:10.626Z,7.80
2022-07-30T00:57:39.353Z,9.23
2022-07-30T01:00:10.091Z,9.00
2022-07-30T01:02:37.485Z,10.10
2022-07-30T01:05:05.483Z,11.85
2022-07-30T01:07:32.957Z,9.88
2022-07-30T01:10:00.142Z,12.90
2022-07-30T01:12:28.108Z,11.63
2022-07-30T01:14:59.800Z,13.02
2022-07-30T01:17:27.080Z,11.32
2022-07-30T01:20:06.150Z,9.63
2022-07-30T01:22:52.070Z,12.80
2022-07-30T01:25:29.223Z,11.52
2022-07-30T01:28:07.368Z,13.40
2022-07-30T01:30:39.892Z,13.25
2022-07-30T01:33:11.050Z,12.02
2022-07-30T01:35:44.216Z,15.05
2022-07-30T01:38:16.652Z,10.85
2022-07-30T01:40:45.911Z,11.80
2022-07-30T01:43:16.028Z,14.73
2022-07-30T01:45:48.298Z,13.38
2022-07-30T01:48:22.071Z,12.15
2022-07-30T01:51:00.685Z,12.50
2022-07-30T01:53:31.219Z,11.95
2022-07-30T01:56:00.289Z,11.50
2022-07-30T01:58:34.084Z,10.52
2022-07-30T02:01:01.871Z,8.25
2022-07-30T02:03:32.091Z,10.32
2022-07-30T02:06:15.883Z,10.82
2022-07-30T02:08:51.211Z,11.40
2022-07-30T02:11:37.672Z,9.30
2022-07-30T02:14:14.409Z,11.00
2022-07-30T02:16:46.827Z,11.98
2022-07-30T02:19:19.510Z,10.00
2022-07-30T02:21:52.667Z,9.75
2022-07-30T02:24:30.646Z,8.43
2022-07-30T02:27:07.373Z,11.80
2022-07-30T02:29:38.551Z,9.60
2022-07-30T02:32:10.689Z,10.38
2022-07-30T02:34:40.263Z,11.20
2022-07-30T02:37:12.466Z,11.80
2022-07-30T02:39:41.750Z,13.38
2022-07-30T02:42:11.820Z,10.88
2022-07-30T02:44:42.451Z,10.07
2022-07-30T02:47:11.562Z,12.07
2022-07-30T02:49:42.813Z,7.70
2022-07-30T02:52:13.991Z,12.02
2022-07-30T02:54:43.163Z,11.65
2022-07-30T02:57:11.541Z,9.75
2022-07-30T02:59:41.252Z,9.98
2022-07-30T03:02:14.723Z,9.05
2022-07-30T03:04:43.332Z,8.73
2022-07-30T03:07:12.217Z,9.80
2022-07-30T03:09:52.282Z,11.25
2022-07-30T03:12:23.891Z,8.90
2022-07-30T03:14:53.937Z,11.60
2022-07-30T03:17:23.798Z,12.23
2022-07-30T03:19:52.533Z,10.50
2022-07-30T03:22:21.276Z,11.50
2022-07-30T03:24:50.510Z,9.20
2022-07-30T03:27:19.092Z,11.68
2022-07-30T03:29:48.702Z,9.20
2022-07-30T03:32:16.575Z,10.98
2022-07-30T03:34:48.845Z,7.85
2022-07-30T03:37:21.683Z,12.32
2022-07-30T03:39:49.179Z,9.70
2022-07-30T03:42:16.897Z,11.18
2022-07-30T03:44:46.598Z,10.98
2022-07-30T03:47:17.589Z,11.07
2022-07-30T03:49:49.412Z,11.07
2022-07-30T03:52:18.526Z,11.43
2022-07-30T03:54:47.558Z,10.60
2022-07-30T03:57:20.362Z,9.10
2022-07-30T03:59:48.287Z,10.82
2022-07-30T04:02:15.814Z,9.32
2022-07-30T04:04:46.099Z,10.95
2022-07-30T04:07:18.047Z,12.30
2022-07-30T04:09:47.754Z,10.65
2022-07-30T04:12:15.007Z,12.38
2022-07-30T04:14:45.564Z,13.18
2022-07-30T04:17:24.610Z,10.18
2022-07-30T04:19:56.477Z,11.55
2022-07-30T04:22:34.310Z,10.15
2022-07-30T04:25:02.810Z,10.38
2022-07-30T04:27:31.776Z,10.48
2022-07-30T04:29:59.854Z,11.77
2022-07-30T04:32:27.733Z,9.52
2022-07-30T04:34:59.410Z,11.18
2022-07-30T04:37:29.116Z,13.23
2022-07-30T04:39:57.786Z,11.65
2022-07-30T04:42:27.470Z,12.63
2022-07-30T04:44:55.453Z,12.23
2022-07-30T04:47:25.597Z,9.63
2022-07-30T04:49:56.027Z,11.00
2022-07-30T04:52:27.069Z,11.25
2022-07-30T04:55:02.265Z,11.15
2022-07-30T04:57:31.640Z,12.75
2022-07-30T05:00:01.627Z,12.27
2022-07-30T05:02:30.815Z,10.88
2022-07-30T05:05:01.454Z,11.00
2022-07-30T05:07:31.753Z,14.00
2022-07-30T05:09:59.591Z,14.02
2022-07-30T05:12:40.757Z,16.15
2022-07-30T05:15:11.833Z,12.73
2022-07-30T05:17:41.493Z,16.00
2022-07-30T05:20:09.727Z,12.13
2022-07-30T05:22:36.921Z,12.07
2022-07-30T05:25:15.997Z,9.88
2022-07-30T05:27:45.839Z,10.32
2022-07-30T05:30:15.785Z,10.57
2022-07-30T05:32:43.962Z,12.75
2022-07-30T05:35:18.953Z,12.98
2022-07-30T05:37:51.194Z,13.32
2022-07-30T05:40:18.436Z,8.13
2022-07-30T05:42:46.130Z,10.73
2022-07-30T05:45:15.702Z,9.43
2022-07-30T05:47:43.005Z,10.75
2022-07-30T05:50:12.809Z,9.35
2022-07-30T05:52:42.495Z,8.85
2022-07-30T05:55:09.984Z,9.25
2022-07-30T05:57:42.191Z,10.80
2022-07-30T06:00:11.124Z,10.02
2022-07-30T06:02:40.976Z,11.35
2022-07-30T06:05:10.677Z,11.02
2022-07-30T06:07:40.402Z,10.98
2022-07-30T06:10:15.004Z,8.27
2022-07-30T06:12:42.608Z,10.25
2022-07-30T06:15:11.200Z,11.82
2022-07-30T06:17:43.290Z,8.93
2022-07-30T06:20:16.064Z,10.27
2022-07-30T06:22:43.406Z,9.90
2022-07-30T06:25:13.210Z,8.57
2022-07-30T06:27:48.123Z,10.02
2022-07-30T06:30:15.493Z,9.00
2022-07-30T06:32:45.741Z,9.43
2022-07-30T06:35:20.432Z,9.88
2022-07-30T06:37:58.702Z,9.43
2022-07-30T06:40:37.283Z,10.70
2022-07-30T06:43:04.446Z,9.40
2022-07-30T06:45:31.751Z,12.02
2022-07-30T06:48:01.216Z,10.13
2022-07-30T06:50:30.916Z,12.18
2022-07-30T06:53:02.687Z,13.57
2022-07-30T06:55:32.158Z,15.40
2022-07-30T06:58:03.902Z,13.20
2022-07-30T07:00:33.568Z,10.18
2022-07-30T07:03:00.784Z,13.88
2022-07-30T07:05:30.683Z,14.50
2022-07-30T07:07:59.554Z,13.80
2022-07-30T07:10:28.044Z,12.38
2022-07-30T07:12:55.966Z,9.00
2022-07-30T07:15:37.374Z,9.50
2022-07-30T07:18:05.275Z,10.98
2022-07-30T07:20:33.323Z,8.82
2022-07-30T07:23:03.167Z,9.15
2022-07-30T07:25:36.893Z,9.93
2022-07-30T07:28:12.238Z,9.63
2022-07-30T07:30:44.335Z,8.90
2022-07-30T07:33:12.635Z,10.55
2022-07-30T07:35:49.658Z,10.00
2022-07-30T07:38:20.400Z,8.10
2022-07-30T07:40:54.391Z,7.20
2022-07-30T07:43:21.633Z,6.80
2022-07-30T07:45:51.245Z,5.90
2022-07-30T07:48:19.431Z,8.45
2022-07-30T07:50:49.117Z,8.00
2022-07-30T07:53:16.457Z,8.80
2022-07-30T07:55:43.656Z,7.32
2022-07-30T07:58:20.824Z,4.88
2022-07-30T08:00:56.347Z,5.85
2022-07-30T08:03:23.793Z,5.18
2022-07-30T08:06:02.003Z,5.55
2022-07-30T08:08:33.397Z,8.02
2022-07-30T08:11:00.653Z,5.60
2022-07-30T08:13:52.932Z,7.18
2022-07-30T08:16:18.305Z,6.25
2022-07-30T08:18:50.104Z,4.95
2022-07-30T08:21:17.401Z,4.28
2022-07-30T08:23:44.703Z,5.55
2022-07-30T08:26:12.025Z,7.22
2022-07-30T08:28:43.180Z,3.33
2022-07-30T08:31:15.471Z,4.18
2022-07-30T08:33:42.750Z,3.65
2022-07-30T08:36:10.311Z,4.00
2022-07-30T08:38:38.904Z,5.05
2022-07-30T08:41:08.693Z,3.13
2022-07-30T08:43:39.623Z,3.03
2022-07-30T08:46:10.410Z,3.42
2022-07-30T08:48:43.456Z,2.72
2022-07-30T08:51:15.261Z,3.42
2022-07-30T08:53:45.765Z,4.57
2022-07-30T08:56:15.294Z,3.60
2022-07-30T08:58:42.734Z,2.95
2022-07-30T09:01:10.011Z,3.63
2022-07-30T09:03:43.963Z,3.67
2022-07-30T09:06:11.842Z,5.57
2022-07-30T09:08:39.449Z,2.35
2022-07-30T09:11:09.212Z,4.05
2022-07-30T09:13:39.113Z,3.67
2022-07-30T09:16:06.753Z,4.25
2022-07-30T09:18:39.741Z,4.03
2022-07-30T09:21:31.530Z,6.55
2022-07-30T09:24:02.248Z,3.25
2022-07-30T09:26:35.482Z,2.85
2022-07-30T09:29:17.010Z,2.63
2022-07-30T09:32:05.852Z,3.40
2022-07-30T09:34:35.997Z,2.47
2022-07-30T09:37:16.635Z,2.50
2022-07-30T09:39:59.375Z,2.50
2022-07-30T09:42:32.041Z,1.98
2022-07-30T09:45:07.357Z,2.72
2022-07-30T09:47:38.586Z,3.28
2022-07-30T09:50:11.223Z,2.15
2022-07-30T09:52:43.990Z,1.65
2022-07-30T09:55:13.196Z,1.50
2022-07-30T09:57:57.768Z,2.28
2022-07-30T10:00:28.439Z,2.97
2022-07-30T10:03:00.694Z,3.47
2022-07-30T10:05:48.985Z,2.50
2022-07-30T10:08:16.666Z,3.35
2022-07-30T10:10:50.716Z,2.63
2022-07-30T10:13:22.246Z,1.98
2022-07-30T10:15:52.390Z,2.05
2022-07-30T10:18:20.041Z,3.35
2022-07-30T10:20:49.044Z,1.52
2022-07-30T10:23:18.378Z,2.92
2022-07-30T10:25:55.331Z,1.98
2022-07-30T10:28:28.802Z,2.00
2022-07-30T10:30:58.652Z,2.00
2022-07-30T10:33:35.200Z,2.58
2022-07-30T10:36:11.079Z,2.05
2022-07-30T10:38:43.235Z,2.50
2022-07-30T10:41:44.495Z,3.47
2022-07-30T10:44:37.001Z,2.17
2022-07-30T10:47:09.332Z,1.98
2022-07-30T10:49:43.164Z,2.10
2022-07-30T10:52:13.808Z,2.58
2022-07-30T10:54:44.623Z,1.40
2022-07-30T10:57:22.645Z,2.00
2022-07-30T11:00:04.066Z,2.88
2022-07-30T11:02:35.911Z,3.03
2022-07-30T11:05:44.066Z,1.77
2022-07-30T11:08:31.788Z,4.97
2022-07-30T11:11:16.287Z,1.80
2022-07-30T11:13:57.386Z,1.63
2022-07-30T11:16:37.029Z,1.58
2022-07-30T11:19:54.874Z,1.52
2022-07-30T11:22:29.011Z,2.28
2022-07-30T11:24:59.477Z,4.43
2022-07-30T11:27:46.816Z,2.00
2022-07-30T11:30:20.710Z,3.80
2022-07-30T11:32:56.292Z,1.55
2022-07-30T11:35:34.459Z,2.00
2022-07-30T11:38:22.227Z,3.10
2022-07-30T11:40:49.753Z,2.42
2022-07-30T11:43:35.522Z,2.50
2022-07-30T11:46:18.058Z,1.67
2022-07-30T11:49:01.377Z,1.52
2022-07-30T11:51:31.513Z,3.30
2022-07-30T11:54:08.543Z,4.18
2022-07-30T11:56:50.376Z,2.00
2022-07-30T11:59:17.780Z,2.15
2022-07-30T12:02:01.854Z,2.40
2022-07-30T12:04:29.979Z,2.97
2022-07-30T12:06:57.329Z,4.90
2022-07-30T12:09:32.127Z,2.17
2022-07-30T12:12:02.339Z,2.05
2022-07-30T12:14:39.952Z,1.88
2022-07-30T12:17:15.088Z,3.00
2022-07-30T12:19:47.366Z,3.10
2022-07-30T12:22:18.436Z,3.65
2022-07-30T12:24:45.754Z,2.92
2022-07-30T12:27:17.443Z,4.72
2022-07-30T12:29:47.192Z,4.22
2022-07-30T12:32:16.910Z,1.88
2022-07-30T12:34:56.214Z,2.92
2022-07-30T12:37:24.118Z,2.25
2022-07-30T12:40:14.923Z,2.20
2022-07-30T12:42:54.806Z,2.88
2022-07-30T12:45:51.791Z,9.27
2022-07-30T12:48:25.542Z,1.38
2022-07-30T12:51:10.876Z,3.90
2022-07-30T12:53:38.124Z,2.08
2022-07-30T12:56:17.050Z,3.10
2022-07-30T12:58:44.782Z,1.38
2022-07-30T13:01:13.584Z,2.03
2022-07-30T13:03:45.406Z,2.85
2022-07-30T13:06:25.606Z,2.58
2022-07-30T13:08:58.111Z,1.40
2022-07-30T13:11:40.184Z,3.28
2022-07-30T13:14:08.172Z,3.45
2022-07-30T13:16:38.606Z,2.25
2022-07-30T13:19:13.562Z,2.63
2022-07-30T13:21:49.485Z,2.15
2022-07-30T13:24:20.061Z,2.15
2022-07-30T13:26:51.597Z,2.45
2022-07-30T13:29:20.904Z,4.15
2022-07-30T13:31:51.113Z,1.77
2022-07-30T13:34:20.902Z,3.08
2022-07-30T13:36:48.122Z,2.15
2022-07-30T13:39:17.658Z,2.83
2022-07-30T13:41:47.051Z,2.78
2022-07-30T13:44:14.252Z,1.90
2022-07-30T13:46:43.775Z,2.33
2022-07-30T13:49:13.351Z,2.78
2022-07-30T13:51:45.543Z,4.45
2022-07-30T13:54:13.969Z,1.35
2022-07-30T13:56:43.342Z,4.50
2022-07-30T13:59:12.712Z,2.65
2022-07-30T14:01:40.018Z,3.50
2022-07-30T14:04:08.483Z,2.15
2022-07-30T14:06:35.750Z,2.40
2022-07-30T14:09:03.114Z,2.97
2022-07-30T14:11:31.610Z,2.53
2022-07-30T14:14:01.456Z,3.42
2022-07-30T14:16:46.816Z,2.08
2022-07-30T14:19:23.682Z,2.13
2022-07-30T14:21:54.994Z,2.00
2022-07-30T14:24:24.746Z,2.75
2022-07-30T14:26:56.006Z,3.10
2022-07-30T14:29:30.959Z,2.40
2022-07-30T14:31:58.123Z,2.53
2022-07-30T14:34:25.620Z,2.40
2022-07-30T14:36:52.842Z,2.72
2022-07-30T14:39:20.981Z,1.92
2022-07-30T14:41:55.589Z,2.97
2022-07-30T14:44:23.972Z,3.25
2022-07-30T14:46:56.039Z,6.90
2022-07-30T14:49:25.585Z,2.25
2022-07-30T14:51:53.271Z,3.50
2022-07-30T14:54:23.565Z,2.20
2022-07-30T14:56:58.062Z,1.70
2022-07-30T14:59:27.662Z,1.80
2022-07-30T15:01:58.295Z,1.92
2022-07-30T15:04:28.059Z,3.88
2022-07-30T15:06:55.253Z,1.50
2022-07-30T15:09:22.608Z,1.75
2022-07-30T15:12:08.450Z,2.72
2022-07-30T15:14:41.004Z,4.82
2022-07-30T15:17:08.528Z,3.58
2022-07-30T15:19:35.847Z,2.30
2022-07-30T15:22:10.325Z,1.58
2022-07-30T15:24:37.639Z,4.07
2022-07-30T15:27:04.893Z,2.95
2022-07-30T15:29:34.342Z,2.13
2022-07-30T15:32:04.225Z,2.97
2022-07-30T15:34:36.231Z,2.22
2022-07-30T15:37:06.421Z,3.22
2022-07-30T15:39:36.409Z,2.72
2022-07-30T15:42:05.951Z,3.45
2022-07-30T15:44:34.156Z,3.45
2022-07-30T15:47:10.270Z,1.40
2022-07-30T15:49:42.395Z,2.25
2022-07-30T15:52:11.578Z,2.10
2022-07-30T15:54:41.426Z,2.00
2022-07-30T15:57:08.621Z,1.95
2022-07-30T15:59:38.098Z,2.53
2022-07-30T16:02:08.203Z,2.78
2022-07-30T16:04:40.352Z,1.95
2022-07-30T16:07:08.442Z,5.80
2022-07-30T16:09:35.642Z,5.90
2022-07-30T16:12:07.204Z,2.35
2022-07-30T16:14:37.495Z,2.67
2022-07-30T16:17:05.154Z,5.80
2022-07-30T16:19:32.596Z,2.13
2022-07-30T16:22:00.222Z,2.10
2022-07-30T16:24:29.904Z,3.83
2022-07-30T16:26:57.312Z,2.63
2022-07-30T16:29:27.196Z,2.08
2022-07-30T16:31:56.703Z,6.70
2022-07-30T16:34:26.785Z,3.35
2022-07-30T16:36:56.276Z,4.75
2022-07-30T16:39:28.347Z,3.60
2022-07-30T16:41:57.854Z,6.10
2022-07-30T16:44:27.018Z,1.45
2022-07-30T16:46:54.213Z,1.65
2022-07-30T16:49:21.490Z,3.80
2022-07-30T16:51:48.788Z,2.72
2022-07-30T16:54:16.196Z,3.15
2022-07-30T16:56:43.470Z,1.67
2022-07-30T16:59:13.774Z,2.13
2022-07-30T17:01:41.225Z,1.70
2022-07-30T17:04:08.449Z,1.75
2022-07-30T17:06:36.373Z,4.68
2022-07-30T17:09:03.852Z,2.20
2022-07-30T17:11:45.914Z,1.90
2022-07-30T17:14:19.561Z,3.30
2022-07-30T17:16:46.740Z,2.38
2022-07-30T17:19:13.950Z,2.30
2022-07-30T17:21:43.762Z,1.42
2022-07-30T17:24:11.848Z,1.75
2022-07-30T17:26:42.813Z,1.67
2022-07-30T17:29:14.193Z,1.60
2022-07-30T17:31:44.298Z,1.88
2022-07-30T17:34:15.779Z,2.17
2022-07-30T17:36:51.758Z,2.67
2022-07-30T17:40:29.927Z,1.52
2022-07-30T17:42:13.839Z,2.72
2022-07-30T17:44:46.907Z,2.58
2022-07-30T17:47:16.236Z,3.28
2022-07-30T17:49:43.970Z,4.85
2022-07-30T17:52:13.397Z,1.95
2022-07-30T17:54:41.245Z,2.95
2022-07-30T17:57:10.867Z,1.92
2022-07-30T17:59:38.344Z,1.50
2022-07-30T18:02:06.341Z,3.95
2022-07-30T18:04:34.884Z,1.40
2022-07-30T18:07:04.748Z,2.58
2022-07-30T18:09:39.260Z,2.13
2022-07-30T18:12:09.996Z,0.98
2022-07-30T18:14:37.480Z,2.60
2022-07-30T18:17:05.410Z,1.20
2022-07-30T18:19:35.320Z,1.73
2022-07-30T18:22:06.629Z,3.05
2022-07-30T18:24:34.042Z,2.42
2022-07-30T18:27:11.584Z,3.80
2022-07-30T18:29:41.077Z,3.88
2022-07-30T18:32:10.890Z,3.80
2022-07-30T18:34:38.131Z,4.07
2022-07-30T18:37:05.466Z,4.63
2022-07-30T18:39:32.673Z,2.05
2022-07-30T18:42:00.534Z,4.68
2022-07-30T18:44:30.281Z,1.50
2022-07-30T18:46:57.456Z,1.45
2022-07-30T18:49:36.732Z,3.97
2022-07-30T18:52:06.316Z,3.65
2022-07-30T18:54:34.417Z,2.90
2022-07-30T18:57:04.245Z,1.40
2022-07-30T18:59:34.174Z,2.60
2022-07-30T19:02:07.011Z,3.28
2022-07-30T19:04:34.728Z,3.45
2022-07-30T19:07:05.210Z,2.78
2022-07-30T19:09:35.358Z,2.25
2022-07-30T19:12:05.608Z,3.67
2022-07-30T19:14:35.650Z,5.22
2022-07-30T19:17:13.625Z,2.65
2022-07-30T19:19:41.673Z,2.53
2022-07-30T19:22:11.507Z,1.98
2022-07-30T19:24:43.797Z,1.95
2022-07-30T19:27:14.107Z,3.20
2022-07-30T19:29:46.374Z,3.95
2022-07-30T19:32:13.663Z,6.90
2022-07-30T19:34:43.368Z,2.40
2022-07-30T19:37:10.961Z,3.90
2022-07-30T19:40:05.274Z,4.10
2022-07-30T19:42:30.549Z,6.53
2022-07-30T19:44:58.044Z,4.93
2022-07-30T19:47:39.405Z,5.93
2022-07-30T19:50:11.565Z,4.65
2022-07-30T19:52:40.582Z,4.72
2022-07-30T19:58:16.037Z,4.13
2022-07-30T20:00:50.208Z,3.30
2022-07-30T20:03:26.060Z,6.53
2022-07-30T20:06:03.800Z,2.85
2022-07-30T20:08:36.976Z,6.70
2022-07-30T20:11:10.223Z,4.55
2022-07-30T20:13:46.275Z,4.70
2022-07-30T20:16:15.447Z,2.53
2022-07-30T20:18:45.845Z,4.82
2022-07-30T20:21:16.605Z,2.45
2022-07-30T20:23:46.408Z,3.85
2022-07-30T20:26:16.152Z,4.18
2022-07-30T20:28:52.639Z,3.55
2022-07-30T20:31:20.471Z,3.17
2022-07-30T20:33:49.558Z,1.95
2022-07-30T20:36:18.778Z,3.08
2022-07-30T20:38:49.245Z,3.78
2022-07-30T20:41:16.723Z,4.47
2022-07-30T20:43:51.709Z,2.45
2022-07-30T20:46:23.125Z,4.10
2022-07-30T20:48:52.224Z,3.70
2022-07-30T20:51:20.130Z,4.75
2022-07-30T20:53:49.880Z,2.30
2022-07-30T20:56:19.380Z,2.67
2022-07-30T21:01:34.461Z,3.85
2022-07-30T21:04:02.867Z,4.63
2022-07-30T21:06:32.600Z,4.72
2022-07-30T21:09:04.598Z,4.45
2022-07-30T21:11:36.220Z,4.10
2022-07-30T21:14:08.779Z,2.47
2022-07-30T21:16:42.601Z,2.47
2022-07-30T21:19:16.494Z,4.40
2022-07-30T21:21:49.638Z,2.88
2022-07-30T21:24:19.792Z,5.63
2022-07-30T21:26:48.856Z,4.00
2022-07-30T21:29:17.056Z,4.90
2022-07-30T21:31:58.476Z,2.55
2022-07-30T21:34:36.057Z,3.17
2022-07-30T21:37:09.779Z,3.30
2022-07-30T21:39:41.802Z,2.95
2022-07-30T21:42:09.459Z,2.45
2022-07-30T21:44:39.377Z,3.90
2022-07-30T21:47:10.294Z,4.63
2022-07-30T21:49:39.561Z,8.25
2022-07-30T21:52:09.300Z,2.50
2022-07-30T21:54:48.035Z,3.63
2022-07-30T21:57:23.118Z,2.42
2022-07-30T21:59:56.689Z,3.70
2022-07-30T22:02:24.935Z,4.40
2022-07-30T22:04:55.148Z,5.60
2022-07-30T22:07:22.517Z,5.43
2022-07-30T22:09:52.111Z,6.03
2022-07-30T22:12:19.531Z,3.00
2022-07-30T22:18:00.806Z,2.30
2022-07-30T22:20:26.880Z,3.05
2022-07-30T22:22:56.122Z,3.80
2022-07-30T22:25:41.664Z,2.80
2022-07-30T22:28:18.022Z,5.25
2022-07-30T22:30:45.222Z,3.85
2022-07-30T22:33:18.808Z,3.90
2022-07-30T22:35:49.944Z,3.80
2022-07-30T22:38:20.278Z,3.65
2022-07-30T22:40:50.343Z,2.10
2022-07-30T22:43:17.521Z,4.78
2022-07-30T22:45:50.067Z,3.45
2022-07-30T22:48:25.344Z,2.60
2022-07-30T22:50:56.503Z,4.78
2022-07-30T22:54:03.588Z,6.28
2022-07-30T22:56:20.265Z,2.17
2022-07-30T22:58:51.293Z,1.23
2022-07-30T23:01:18.497Z,2.20
2022-07-30T23:06:35.121Z,2.75
2022-07-30T23:09:02.297Z,3.90
2022-07-30T23:11:37.169Z,1.60
2022-07-30T23:12:15.410Z,6.15
2022-07-30T23:12:26.632Z,2.40
2022-07-30T23:12:28.468Z,4.78
2022-07-30T23:12:34.042Z,6.13
2022-07-30T23:14:09.246Z,2.38
2022-07-30T23:16:37.578Z,1.92
2022-07-30T23:19:05.670Z,2.05
2022-07-30T23:21:34.811Z,1.65
2022-07-30T23:24:11.117Z,2.53
2022-07-30T23:26:38.754Z,1.60
2022-07-30T23:29:08.218Z,2.28
2022-07-30T23:31:41.038Z,1.80
2022-07-30T23:34:08.210Z,1.10
2022-07-30T23:36:38.046Z,2.13
2022-07-30T23:39:05.471Z,4.43
2022-07-30T23:41:34.979Z,1.98
2022-07-30T23:44:02.162Z,1.60
2022-07-30T23:46:29.550Z,1.33
2022-07-30T23:48:56.769Z,1.83
2022-07-30T23:51:26.315Z,3.63
2022-07-30T23:54:06.448Z,3.38
2022-07-30T23:56:33.625Z,3.10
2022-07-30T23:59:00.898Z,2.15
